Time;durP1;ratioP1;P1;durP2;ratioP2;P2;SDS_P1;SDS_P2;PMS_P1;PMS_P2;Temp;Humidity;BMP_temperature;BMP_pressure;BME280_temperature;BME280_humidity;BME280_pressure;Samples;Min_cycle;Max_cycle;Signal;HPM_P1;HPM_P2
2023/01/15 00:00:04;;;;;;;2.20;0.80;;;;;;;9.90;99.53;98851.87;106223;1258;70934;-80
2023/01/15 00:02:35;;;;;;;2.30;0.70;;;;;;;9.85;98.42;98867.75;106383;1257;62056;-82
2023/01/15 00:05:02;;;;;;;2.40;0.80;;;;;;;9.76;99.55;98885.89;106263;1257;61219;-80
2023/01/15 00:07:30;;;;;;;1.90;0.60;;;;;;;9.43;97.24;98931.77;106463;1259;74390;-78
2023/01/15 00:09:57;;;;;;;2.10;0.50;;;;;;;8.90;97.38;98935.83;106899;1262;71457;-83
2023/01/15 00:12:25;;;;;;;1.30;0.50;;;;;;;8.40;99.51;98947.42;106755;1255;72410;-80
2023/01/15 00:14:51;;;;;;;1.20;0.40;;;;;;;8.04;100.00;98943.81;106570;1263;61291;-83
2023/01/15 00:17:18;;;;;;;1.20;0.60;;;;;;;7.81;100.00;98956.53;106528;1260;61373;-81
2023/01/15 00:19:46;;;;;;;1.40;0.40;;;;;;;7.59;100.00;98946.67;106656;1257;75282;-79
2023/01/15 00:22:13;;;;;;;1.20;0.40;;;;;;;7.45;100.00;98943.42;106336;1256;70458;-79
2023/01/15 00:27:37;;;;;;;1.90;0.40;;;;;;;7.14;100.00;98952.15;106702;1256;61317;-80
2023/01/15 00:30:10;;;;;;;1.90;0.40;;;;;;;7.02;100.00;98942.23;106847;1261;62057;-80
2023/01/15 00:32:38;;;;;;;1.50;0.40;;;;;;;6.92;100.00;98941.45;106492;1258;74538;-80
2023/01/15 00:35:08;;;;;;;2.10;0.30;;;;;;;6.86;100.00;98935.95;106684;1260;69670;-81
2023/01/15 00:37:35;;;;;;;1.40;0.30;;;;;;;6.77;100.00;98953.11;106518;1260;73107;-81
2023/01/15 00:40:02;;;;;;;2.40;0.90;;;;;;;6.64;100.00;98971.15;106415;1262;61237;-81
2023/01/15 00:42:30;;;;;;;1.00;0.40;;;;;;;6.55;100.00;98975.33;106179;1261;61378;-80
2023/01/15 00:44:57;;;;;;;2.60;0.50;;;;;;;6.43;99.92;98969.61;106301;1260;74799;-80
2023/01/15 00:47:25;;;;;;;3.60;0.40;;;;;;;6.34;99.95;98970.30;106671;1257;72230;-81
2023/01/15 00:49:52;;;;;;;3.50;0.50;;;;;;;6.26;99.96;98974.83;106792;1255;71150;-80
2023/01/15 00:52:19;;;;;;;3.00;0.60;;;;;;;6.20;100.00;98974.44;106559;1261;61209;-80
2023/01/15 00:54:47;;;;;;;2.00;0.50;;;;;;;6.11;100.00;98980.84;106600;1260;61170;-82
2023/01/15 00:57:14;;;;;;;1.40;0.50;;;;;;;6.01;99.45;98997.46;106705;1261;74228;-81
2023/01/15 00:59:41;;;;;;;1.40;0.50;;;;;;;5.93;99.91;98993.04;106594;1260;70095;-80
2023/01/15 01:02:08;;;;;;;2.70;0.70;;;;;;;5.85;99.86;98997.75;106643;1255;71450;-80
2023/01/15 01:04:35;;;;;;;2.00;0.50;;;;;;;5.80;100.00;99002.92;106463;1262;61673;-80
2023/01/15 01:07:02;;;;;;;1.40;0.40;;;;;;;5.75;100.00;99008.25;106916;1254;61170;-80
2023/01/15 01:09:30;;;;;;;2.40;0.70;;;;;;;5.69;100.00;99031.87;106709;1256;75358;-81
2023/01/15 01:11:57;;;;;;;1.20;0.50;;;;;;;5.61;100.00;99032.17;106490;1260;70159;-81
2023/01/15 01:14:27;;;;;;;1.40;0.40;;;;;;;5.53;100.00;99027.14;106511;1259;71728;-81
2023/01/15 01:16:54;;;;;;;2.40;0.50;;;;;;;5.47;100.00;99031.80;106288;1255;62838;-80
2023/01/15 01:19:22;;;;;;;4.30;0.60;;;;;;;5.42;100.00;99025.36;106567;1260;61135;-81
2023/01/15 01:21:50;;;;;;;1.60;0.50;;;;;;;5.36;100.00;99030.44;106511;1260;74650;-81
2023/01/15 01:24:26;;;;;;;2.40;0.40;;;;;;;5.30;99.90;99031.24;106419;1260;70664;-82
2023/01/15 01:26:57;;;;;;;1.80;0.50;;;;;;;5.25;98.71;99036.05;106913;1255;72470;-80
2023/01/15 01:29:24;;;;;;;3.30;0.50;;;;;;;5.22;98.68;99047.36;106559;1254;61269;-80
2023/01/15 01:32:00;;;;;;;1.80;0.30;;;;;;;5.20;98.52;99046.88;106497;1260;61176;-81
2023/01/15 01:34:27;;;;;;;2.00;0.30;;;;;;;5.18;97.20;99046.54;106449;1256;73457;-80
2023/01/15 01:36:54;;;;;;;1.00;0.40;;;;;;;5.19;96.86;99038.78;106714;1260;71193;-82
2023/01/15 01:39:21;;;;;;;2.20;0.50;;;;;;;5.18;97.42;99049.23;106732;1255;71890;-81
2023/01/15 01:41:51;;;;;;;3.10;0.50;;;;;;;5.15;97.44;99059.54;106408;1260;61369;-81
2023/01/15 01:44:57;;;;;;;2.90;0.40;;;;;;;5.13;97.30;99074.52;106658;1257;60354;-81
2023/01/15 01:47:27;;;;;;;2.00;0.50;;;;;;;5.08;97.26;99069.14;106378;1260;74712;-81
2023/01/15 01:50:01;;;;;;;1.90;0.40;;;;;;;5.03;97.24;99061.77;106510;1260;68758;-81
2023/01/15 01:52:44;;;;;;;1.30;0.50;;;;;;;4.99;97.44;99073.13;106699;1261;72729;-82
2023/01/15 01:55:15;;;;;;;2.10;0.40;;;;;;;4.96;98.21;99069.46;106705;1260;62704;-83
2023/01/15 01:57:46;;;;;;;2.10;0.40;;;;;;;4.92;97.87;99081.61;106540;1254;59908;-83
2023/01/15 02:00:16;;;;;;;1.60;0.40;;;;;;;4.87;97.75;99068.39;107226;1254;72612;-81
2023/01/15 02:02:47;;;;;;;2.10;0.50;;;;;;;4.81;98.00;99069.06;107260;1257;70251;-81
2023/01/15 02:05:26;;;;;;;1.40;0.40;;;;;;;4.74;97.76;99068.99;106738;1255;72745;-82
2023/01/15 02:07:54;;;;;;;1.40;0.40;;;;;;;4.70;97.44;99068.95;106585;1259;59969;-81
2023/01/15 02:10:25;;;;;;;2.60;0.40;;;;;;;4.65;96.98;99071.42;106738;1258;61746;-81
2023/01/15 02:13:25;;;;;;;1.50;0.40;;;;;;;4.61;97.56;99058.09;106555;1261;73140;-82
2023/01/15 02:16:27;;;;;;;2.00;0.40;;;;;;;4.54;96.96;99066.63;106603;1260;71229;-81
2023/01/15 02:19:21;;;;;;;0.70;0.20;;;;;;;4.53;97.28;99067.81;106712;1260;71866;-81
2023/01/15 02:22:13;;;;;;;1.50;0.20;;;;;;;4.51;97.05;99067.80;106489;1258;61737;-81
2023/01/15 02:25:04;;;;;;;1.50;0.20;;;;;;;4.50;97.36;99069.13;106674;1259;62469;-81
2023/01/15 02:27:32;;;;;;;0.70;0.30;;;;;;;4.50;96.70;99075.66;106799;1260;74660;-80
2023/01/15 02:30:41;;;;;;;2.40;0.30;;;;;;;4.49;96.05;99073.02;107003;1260;71541;-79
2023/01/15 02:33:17;;;;;;;2.60;0.40;;;;;;;4.51;96.16;99068.36;106752;1264;72377;-80
2023/01/15 02:35:57;;;;;;;1.20;0.30;;;;;;;4.52;96.76;99071.40;106839;1264;61290;-80
2023/01/15 02:38:29;;;;;;;1.00;0.20;;;;;;;4.52;96.41;99079.48;106960;1254;60090;-81
2023/01/15 02:41:00;;;;;;;2.50;0.30;;;;;;;4.53;96.41;99067.21;106775;1255;75892;-78
2023/01/15 02:43:32;;;;;;;2.50;0.30;;;;;;;4.53;96.57;99064.83;107088;1254;71649;-76
2023/01/15 02:46:08;;;;;;;0.60;0.30;;;;;;;4.54;96.04;99065.04;106661;1258;71774;-78
2023/01/15 02:48:38;;;;;;;1.80;0.30;;;;;;;4.55;95.22;99077.41;106834;1257;61365;-78
2023/01/15 02:51:11;;;;;;;2.90;0.40;;;;;;;4.56;94.93;99076.92;107192;1254;61153;-78
2023/01/15 02:53:42;;;;;;;2.20;0.40;;;;;;;4.57;94.11;99073.13;106964;1261;73571;-78
2023/01/15 02:56:19;;;;;;;1.30;0.20;;;;;;;4.58;93.75;99064.77;106838;1255;70978;-77
2023/01/15 02:58:49;;;;;;;1.60;0.20;;;;;;;4.59;93.28;99053.98;107047;1257;71488;-78
2023/01/15 03:01:31;;;;;;;0.40;0.10;;;;;;;4.60;92.52;99052.27;106387;1256;61235;-77
2023/01/15 03:04:09;;;;;;;1.50;0.40;;;;;;;4.61;91.11;99033.05;106648;1258;61464;-78
2023/01/15 03:07:13;;;;;;;0.80;0.30;;;;;;;4.64;91.68;99024.85;106138;1257;73925;-77
2023/01/15 03:09:41;;;;;;;2.10;0.40;;;;;;;4.63;91.42;99022.46;105477;1264;70057;-77
2023/01/15 03:13:01;;;;;;;1.30;0.30;;;;;;;4.63;91.21;99025.77;106307;1257;71558;-76
2023/01/15 03:18:51;;;;;;;2.60;0.30;;;;;;;4.67;89.80;99036.21;106189;1260;61164;-77
2023/01/15 03:21:26;;;;;;;2.50;0.20;;;;;;;4.70;89.52;99031.46;105845;1257;74417;-77
2023/01/15 03:24:00;;;;;;;2.00;0.50;;;;;;;4.73;89.17;99032.52;106441;1257;70011;-77
2023/01/15 03:26:30;;;;;;;2.40;0.40;;;;;;;4.75;89.68;99031.25;105994;1254;72476;-78
2023/01/15 03:28:59;;;;;;;2.00;0.50;;;;;;;4.76;90.56;99030.94;106834;1259;61228;-76
2023/01/15 03:31:28;;;;;;;1.80;0.40;;;;;;;4.77;90.98;99028.29;106012;1254;61369;-77
2023/01/15 03:33:55;;;;;;;3.20;0.50;;;;;;;4.76;91.41;99022.88;106186;1254;74369;-77
2023/01/15 03:36:31;;;;;;;3.10;0.40;;;;;;;4.76;91.72;99020.52;106222;1257;70467;-77
2023/01/15 03:38:58;;;;;;;2.20;0.40;;;;;;;4.76;92.00;99024.33;106180;1256;70454;-76
2023/01/15 03:41:47;;;;;;;2.20;0.50;;;;;;;4.75;92.34;99011.29;105997;1258;61353;-76
2023/01/15 03:44:40;;;;;;;2.40;0.50;;;;;;;4.75;92.52;99018.13;106154;1257;61237;-76
2023/01/15 03:47:07;;;;;;;2.20;0.30;;;;;;;4.77;92.74;99024.41;106495;1260;73395;-81
2023/01/15 03:49:52;;;;;;;1.40;0.60;;;;;;;4.78;93.06;99016.88;106436;1254;70918;-79
2023/01/15 03:52:27;;;;;;;2.60;0.60;;;;;;;4.80;93.37;99020.02;106194;1262;72909;-78
2023/01/15 03:55:09;;;;;;;3.50;0.60;;;;;;;4.83;93.46;99012.79;106357;1254;61683;-78
2023/01/15 03:57:48;;;;;;;1.40;0.60;;;;;;;4.84;93.44;99010.55;106444;1255;61366;-76
2023/01/15 04:00:25;;;;;;;3.00;0.60;;;;;;;4.86;93.45;99004.77;106571;1255;73335;-76
2023/01/15 04:02:55;;;;;;;2.20;0.60;;;;;;;4.88;93.44;99006.27;106534;1254;70939;-77
2023/01/15 04:05:27;;;;;;;2.10;0.70;;;;;;;4.89;93.22;99002.16;106907;1258;73764;-77
2023/01/15 04:07:59;;;;;;;2.80;0.50;;;;;;;4.89;93.12;98996.55;106434;1260;61256;-76
2023/01/15 04:10:26;;;;;;;4.20;0.60;;;;;;;4.91;92.99;98994.39;106355;1256;61687;-78
2023/01/15 04:12:53;;;;;;;1.90;0.40;;;;;;;4.91;92.64;98999.08;106417;1258;74874;-77
2023/01/15 04:15:20;;;;;;;3.60;0.70;;;;;;;4.91;92.90;98998.35;106458;1257;72871;-76
2023/01/15 04:17:47;;;;;;;2.20;0.50;;;;;;;4.93;92.62;99002.77;106384;1257;71795;-77
2023/01/15 04:20:15;;;;;;;1.70;0.60;;;;;;;4.95;92.10;98995.83;106549;1258;61327;-75
2023/01/15 04:22:42;;;;;;;2.20;0.60;;;;;;;4.98;91.91;98986.06;106960;1257;61611;-76
2023/01/15 04:25:09;;;;;;;3.00;0.60;;;;;;;4.97;91.94;98988.21;106932;1254;74701;-75
2023/01/15 04:27:36;;;;;;;1.40;0.50;;;;;;;4.98;91.81;98991.06;106466;1257;71029;-76
2023/01/15 04:30:03;;;;;;;2.00;0.50;;;;;;;4.99;91.50;98989.48;106840;1259;73949;-76
2023/01/15 04:32:30;;;;;;;1.90;0.50;;;;;;;4.99;91.46;98987.99;108917;1256;60006;-76
2023/01/15 04:34:58;;;;;;;2.60;0.60;;;;;;;5.02;91.36;98997.69;106863;1255;61366;-77
2023/01/15 04:37:25;;;;;;;3.10;0.80;;;;;;;5.05;91.46;99000.80;106231;1256;73871;-78
2023/01/15 04:39:51;;;;;;;2.60;0.80;;;;;;;5.08;90.94;99008.83;106394;1256;69897;-76
2023/01/15 04:45:09;;;;;;;3.90;0.80;;;;;;;5.13;90.58;98991.83;106122;1257;61606;-78
2023/01/15 04:47:36;;;;;;;4.60;0.90;;;;;;;5.15;90.57;98986.76;106105;1257;61356;-76
2023/01/15 04:50:03;;;;;;;3.10;0.80;;;;;;;5.15;90.26;98983.08;106255;1254;74160;-78
2023/01/15 04:52:30;;;;;;;3.00;0.80;;;;;;;5.16;90.37;98976.70;106116;1260;71509;-77
2023/01/15 04:54:57;;;;;;;2.60;0.80;;;;;;;5.16;90.27;98984.29;106263;1258;71247;-79
2023/01/15 04:57:24;;;;;;;2.30;0.70;;;;;;;5.16;90.34;98991.63;106179;1254;61271;-78
2023/01/15 04:59:52;;;;;;;1.70;0.80;;;;;;;5.15;89.92;98994.55;106462;1254;61320;-78
2023/01/15 05:02:19;;;;;;;3.60;1.00;;;;;;;5.15;89.60;98992.29;106256;1257;74401;-80
2023/01/15 05:04:46;;;;;;;4.20;1.00;;;;;;;5.15;89.47;99003.58;106332;1256;69881;-78
2023/01/15 05:07:13;;;;;;;3.40;0.80;;;;;;;5.16;89.81;99012.65;106272;1255;71119;-77
2023/01/15 05:09:40;;;;;;;2.90;0.80;;;;;;;5.16;89.75;99019.32;107521;1254;61167;-76
2023/01/15 05:12:07;;;;;;;2.80;0.90;;;;;;;5.17;89.49;99002.35;107212;1254;61182;-77
2023/01/15 05:14:34;;;;;;;3.20;1.10;;;;;;;5.18;89.66;99004.83;107359;1254;73266;-76
2023/01/15 05:17:01;;;;;;;3.70;0.90;;;;;;;5.20;89.67;99015.16;107038;1256;71841;-76
2023/01/15 05:19:28;;;;;;;3.60;0.90;;;;;;;5.20;89.82;99016.95;107330;1254;70972;-76
2023/01/15 05:21:55;;;;;;;1.80;0.80;;;;;;;5.20;89.91;99022.33;106656;1257;61308;-78
2023/01/15 05:24:22;;;;;;;3.30;0.80;;;;;;;5.20;89.69;99014.36;106769;1254;61240;-76
2023/01/15 05:26:49;;;;;;;4.00;0.90;;;;;;;5.21;89.68;98999.02;106332;1256;73175;-77
2023/01/15 05:29:16;;;;;;;3.10;1.10;;;;;;;5.22;89.47;98992.11;106220;1259;69946;-79
2023/01/15 05:31:44;;;;;;;4.60;1.10;;;;;;;5.22;89.25;98989.52;106437;1254;72723;-78
2023/01/15 05:34:12;;;;;;;3.80;1.10;;;;;;;5.21;88.94;98995.01;106210;1256;61242;-78
2023/01/15 05:36:41;;;;;;;6.40;1.50;;;;;;;5.22;88.97;99003.02;106712;1254;60501;-80
2023/01/15 05:39:08;;;;;;;3.40;1.40;;;;;;;5.24;89.15;99003.48;106443;1256;74479;-77
2023/01/15 05:41:51;;;;;;;4.80;1.10;;;;;;;5.22;89.27;98996.98;106654;1256;69603;-77
2023/01/15 05:44:22;;;;;;;4.00;1.20;;;;;;;5.21;89.38;98998.66;106709;1254;74005;-77
2023/01/15 05:46:53;;;;;;;3.50;1.20;;;;;;;5.20;89.12;99001.76;106537;1256;61224;-78
2023/01/15 05:49:22;;;;;;;4.20;1.60;;;;;;;5.20;89.13;99004.45;106333;1257;61638;-78
2023/01/15 05:51:51;;;;;;;4.10;1.10;;;;;;;5.21;88.86;98999.80;106494;1255;73497;-78
2023/01/15 05:54:20;;;;;;;3.80;0.90;;;;;;;5.22;88.89;98996.99;106349;1257;69763;-79
2023/01/15 05:56:47;;;;;;;3.50;0.90;;;;;;;5.21;88.94;98992.55;106690;1256;72707;-79
2023/01/15 05:59:16;;;;;;;4.20;1.20;;;;;;;5.19;89.12;99003.80;106990;1256;61724;-79
2023/01/15 06:01:43;;;;;;;4.20;1.10;;;;;;;5.20;89.27;98997.45;106342;1257;61811;-78
2023/01/15 06:04:16;;;;;;;4.40;1.50;;;;;;;5.20;89.28;99000.92;106213;1259;74977;-81
2023/01/15 06:06:43;;;;;;;4.20;1.00;;;;;;;5.18;89.42;99007.11;106356;1254;70877;-78
2023/01/15 06:09:10;;;;;;;7.30;2.80;;;;;;;5.19;89.20;99002.78;106442;1254;71590;-78
2023/01/15 06:11:38;;;;;;;6.90;1.80;;;;;;;5.20;89.15;99008.95;106358;1254;61234;-77
2023/01/15 06:14:06;;;;;;;5.40;1.60;;;;;;;5.23;89.23;99009.36;106214;1260;61148;-80
2023/01/15 06:16:33;;;;;;;3.60;1.40;;;;;;;5.24;89.33;99017.41;106128;1257;74497;-78
2023/01/15 06:19:02;;;;;;;5.50;1.90;;;;;;;5.25;89.26;99023.63;106476;1254;70113;-77
2023/01/15 06:21:31;;;;;;;6.00;1.50;;;;;;;5.28;88.94;99033.44;106468;1258;72611;-78
2023/01/15 06:23:59;;;;;;;4.40;1.30;;;;;;;5.31;88.97;99032.40;106330;1255;61169;-79
2023/01/15 06:26:26;;;;;;;4.90;1.40;;;;;;;5.33;88.78;99032.73;106317;1254;61219;-78
2023/01/15 06:28:53;;;;;;;3.90;1.30;;;;;;;5.35;88.79;99023.55;106218;1256;73196;-77
2023/01/15 06:31:22;;;;;;;3.10;1.20;;;;;;;5.37;88.76;99030.20;106447;1256;69944;-81
2023/01/15 06:33:49;;;;;;;6.70;1.70;;;;;;;5.37;88.36;99032.80;106470;1254;72760;-81
2023/01/15 06:36:20;;;;;;;7.10;1.40;;;;;;;5.41;87.60;99026.53;106449;1256;61199;-78
2023/01/15 06:38:48;;;;;;;7.80;2.00;;;;;;;5.45;87.85;99022.70;106561;1257;61346;-77
2023/01/15 06:49:36;;;;;;;3.80;1.20;;;;;;;5.51;86.75;99029.55;106594;1256;62428;-79
2023/01/15 06:52:04;;;;;;;4.80;1.40;;;;;;;5.54;85.98;99033.51;106424;1254;61356;-78
2023/01/15 06:54:31;;;;;;;6.20;1.70;;;;;;;5.58;86.17;99026.63;106653;1256;74486;-79
2023/01/15 06:56:59;;;;;;;4.40;1.30;;;;;;;5.57;85.77;99020.91;106924;1257;69964;-78
2023/01/15 06:59:26;;;;;;;5.80;1.40;;;;;;;5.57;85.70;99021.92;106940;1256;71445;-78
2023/01/15 07:01:53;;;;;;;4.80;1.70;;;;;;;5.57;85.27;99019.45;106512;1254;61362;-78
2023/01/15 07:04:19;;;;;;;4.50;1.30;;;;;;;5.58;85.21;99026.74;106286;1254;61380;-78
2023/01/15 07:06:46;;;;;;;5.90;1.60;;;;;;;5.56;85.22;99023.66;106366;1259;74454;-76
2023/01/15 07:09:13;;;;;;;7.50;1.50;;;;;;;5.61;85.24;99023.81;106288;1259;70115;-77
2023/01/15 07:11:50;;;;;;;6.00;1.30;;;;;;;5.63;84.89;99026.30;106707;1254;72491;-78
2023/01/15 07:14:25;;;;;;;6.30;1.40;;;;;;;5.64;84.77;99022.17;106506;1254;61625;-78
2023/01/15 07:16:52;;;;;;;7.20;1.40;;;;;;;5.64;84.68;99021.52;106584;1254;61219;-78
2023/01/15 07:19:19;;;;;;;5.90;1.50;;;;;;;5.62;84.42;99017.27;106350;1259;74710;-77
2023/01/15 07:21:47;;;;;;;4.50;1.20;;;;;;;5.63;84.62;99016.54;106197;1254;70061;-77
2023/01/15 07:24:15;;;;;;;7.10;1.70;;;;;;;5.61;84.44;99020.55;106498;1256;71521;-78
2023/01/15 07:26:44;;;;;;;6.50;1.80;;;;;;;5.59;84.36;99026.23;106377;1255;61657;-77
2023/01/15 07:29:11;;;;;;;7.00;1.40;;;;;;;5.62;84.39;99019.27;106767;1259;60703;-76
2023/01/15 07:31:39;;;;;;;6.10;1.30;;;;;;;5.61;84.34;99013.77;108888;1255;74752;-76
2023/01/15 07:34:06;;;;;;;6.00;1.50;;;;;;;5.61;84.29;99019.21;108842;1254;71158;-76
2023/01/15 07:36:34;;;;;;;6.70;1.40;;;;;;;5.61;83.81;99030.10;106554;1259;71715;-77
2023/01/15 07:39:03;;;;;;;7.40;1.70;;;;;;;5.64;83.60;99023.10;106269;1256;61300;-79
2023/01/15 07:49:50;;;;;;;6.20;1.30;;;;;;;5.67;82.70;99023.23;106926;1256;71454;-78
2023/01/15 07:52:20;;;;;;;5.90;1.40;;;;;;;5.67;82.81;99016.70;106711;1256;61165;-78
2023/01/15 07:54:48;;;;;;;5.60;1.50;;;;;;;5.66;82.50;99019.88;107427;1256;61215;-78
2023/01/15 07:57:18;;;;;;;5.20;1.20;;;;;;;5.66;82.33;99032.08;106442;1261;74823;-77
2023/01/15 07:59:45;;;;;;;5.30;1.70;;;;;;;5.69;82.14;99024.86;106060;1254;69735;-76
2023/01/15 08:02:13;;;;;;;7.60;2.20;;;;;;;5.69;82.10;99018.71;106007;1254;72592;-77
2023/01/15 08:04:40;;;;;;;8.10;1.50;;;;;;;5.71;82.27;99027.96;106296;1260;61286;-78
2023/01/15 08:07:08;;;;;;;6.00;1.50;;;;;;;5.69;82.36;99030.13;106651;1256;61393;-76
2023/01/15 08:09:34;;;;;;;8.60;1.60;;;;;;;5.71;82.05;99039.50;106190;1254;73119;-76
2023/01/15 08:17:37;;;;;;;4.60;1.50;;;;;;;5.76;81.63;99035.43;106193;1260;61231;-77
2023/01/15 08:20:07;;;;;;;7.90;1.50;;;;;;;5.77;81.48;99029.77;106311;1258;61762;-76
2023/01/15 08:22:34;;;;;;;6.50;1.50;;;;;;;5.78;82.01;99027.05;106397;1254;73170;-76
2023/01/15 08:25:01;;;;;;;6.50;1.50;;;;;;;5.78;81.84;99030.23;106447;1257;70975;-77
2023/01/15 08:27:29;;;;;;;7.00;1.50;;;;;;;5.78;82.01;99026.66;106592;1254;72378;-77
2023/01/15 08:29:59;;;;;;;4.40;1.10;;;;;;;5.79;81.93;99017.29;106671;1256;61173;-81
2023/01/15 08:32:26;;;;;;;6.50;1.30;;;;;;;5.79;81.61;99019.31;106532;1254;61401;-77
2023/01/15 08:34:52;;;;;;;6.60;1.40;;;;;;;5.80;81.49;99024.66;106394;1254;73462;-77
2023/01/15 08:37:19;;;;;;;7.50;1.70;;;;;;;5.82;81.39;99027.27;106173;1256;69851;-77
2023/01/15 08:39:46;;;;;;;5.90;1.50;;;;;;;5.83;81.35;99026.16;106483;1254;73673;-77
2023/01/15 08:42:13;;;;;;;8.70;1.50;;;;;;;5.84;80.82;99029.64;106268;1259;61439;-78
2023/01/15 08:44:40;;;;;;;6.60;1.60;;;;;;;5.86;80.83;99035.13;106660;1256;61100;-77
2023/01/15 08:47:06;;;;;;;6.00;1.50;;;;;;;5.88;80.79;99045.93;106414;1256;74582;-77
2023/01/15 08:49:33;;;;;;;7.20;1.70;;;;;;;5.92;80.91;99045.16;106096;1257;70953;-77
2023/01/15 08:52:00;;;;;;;7.10;1.50;;;;;;;5.92;80.78;99041.56;106205;1254;73909;-77
2023/01/15 08:54:28;;;;;;;8.20;1.50;;;;;;;5.93;80.59;99047.48;106507;1256;61639;-77
2023/01/15 08:56:55;;;;;;;5.10;1.40;;;;;;;5.93;80.31;99040.80;106287;1260;61563;-77
2023/01/15 08:59:22;;;;;;;6.60;1.70;;;;;;;5.95;80.23;99039.02;106382;1256;73895;-78
2023/01/15 09:01:49;;;;;;;6.00;1.40;;;;;;;5.95;79.36;99035.30;106353;1256;71261;-77
2023/01/15 09:04:19;;;;;;;4.30;1.20;;;;;;;5.95;79.14;99042.17;106957;1256;73686;-81
2023/01/15 09:06:47;;;;;;;5.30;1.10;;;;;;;5.95;78.94;99037.80;106409;1258;62190;-77
2023/01/15 09:09:14;;;;;;;5.50;1.40;;;;;;;5.93;78.59;99039.15;106022;1254;61138;-79
2023/01/15 09:11:43;;;;;;;5.80;1.30;;;;;;;5.95;78.65;99044.48;106327;1257;73889;-79
2023/01/15 09:14:13;;;;;;;7.50;1.40;;;;;;;5.95;78.27;99047.45;106328;1256;70327;-76
2023/01/15 09:17:00;;;;;;;7.90;1.80;;;;;;;5.94;78.08;99056.46;106117;1254;71837;-78
2023/01/15 09:19:27;;;;;;;5.30;1.20;;;;;;;5.96;78.10;99044.67;106111;1261;61944;-78
2023/01/15 09:21:54;;;;;;;6.30;1.30;;;;;;;5.96;78.23;99050.66;106718;1255;61356;-77
2023/01/15 09:24:21;;;;;;;7.40;1.60;;;;;;;5.99;78.09;99067.69;106478;1259;74691;-78
2023/01/15 09:26:51;;;;;;;4.50;1.20;;;;;;;6.01;77.91;99066.23;106297;1254;69408;-76
2023/01/15 09:29:19;;;;;;;4.10;1.30;;;;;;;6.00;77.51;99073.50;106276;1255;72193;-77
2023/01/15 09:31:46;;;;;;;7.90;1.30;;;;;;;6.02;77.32;99059.35;106085;1254;61829;-78
2023/01/15 09:34:13;;;;;;;6.40;1.20;;;;;;;6.07;77.60;99062.11;106395;1254;61460;-77
2023/01/15 09:36:40;;;;;;;3.60;1.30;;;;;;;6.10;76.83;99069.13;106090;1254;73723;-77
2023/01/15 09:39:07;;;;;;;4.70;1.10;;;;;;;6.15;76.65;99061.33;106702;1255;69987;-78
2023/01/15 09:42:05;;;;;;;6.70;1.70;;;;;;;6.18;76.57;99063.61;106113;1256;72426;-78
2023/01/15 09:44:44;;;;;;;5.30;1.40;;;;;;;6.25;76.20;99060.20;106140;1254;61697;-79
2023/01/15 09:47:28;;;;;;;5.50;1.30;;;;;;;6.32;76.38;99060.31;106231;1257;61241;-77
2023/01/15 09:50:20;;;;;;;5.50;1.20;;;;;;;6.37;75.66;99067.94;106269;1256;74518;-77
2023/01/15 09:52:49;;;;;;;4.20;1.20;;;;;;;6.42;75.80;99059.56;106174;1255;70904;-78
2023/01/15 09:55:26;;;;;;;6.00;1.20;;;;;;;6.44;74.82;99069.15;107008;1255;72151;-78
2023/01/15 09:58:03;;;;;;;6.10;1.30;;;;;;;6.47;75.15;99063.52;107768;1255;61083;-77
2023/01/15 10:00:44;;;;;;;5.10;1.30;;;;;;;6.49;75.10;99053.48;108712;1256;59874;-79
2023/01/15 10:03:49;;;;;;;3.60;0.80;;;;;;;6.51;74.38;99049.52;106063;1256;75780;-77
2023/01/15 10:06:28;;;;;;;5.10;1.00;;;;;;;6.54;74.01;99044.27;108103;1256;70904;-76
2023/01/15 10:09:20;;;;;;;5.00;1.20;;;;;;;6.55;73.50;99042.98;109267;1255;72313;-76
2023/01/15 10:14:53;;;;;;;3.40;0.90;;;;;;;6.65;72.15;99044.40;109168;1255;58892;-77
2023/01/15 10:17:26;;;;;;;5.60;1.60;;;;;;;6.70;71.31;99040.56;108905;1254;74530;-77
2023/01/15 10:19:53;;;;;;;5.60;0.90;;;;;;;6.80;70.87;99049.15;109287;1254;69991;-77
2023/01/15 10:22:31;;;;;;;4.30;0.80;;;;;;;6.84;69.57;99049.19;108809;1254;274682;-77
2023/01/15 10:25:02;;;;;;;4.70;0.90;;;;;;;6.89;68.95;99066.45;109198;1254;59657;-77
2023/01/15 10:27:32;;;;;;;7.00;1.00;;;;;;;6.95;69.23;99056.20;109232;1254;59120;-77
2023/01/15 10:33:49;;;;;;;2.80;0.90;;;;;;;6.98;69.47;99072.73;103095;1292;599053;-78
2023/01/15 10:36:25;;;;;;;4.80;0.70;;;;;;;6.99;70.25;99080.59;105642;1265;60180;-78
2023/01/15 10:39:20;;;;;;;3.20;0.70;;;;;;;6.86;70.09;99080.71;105540;1266;59823;-77
2023/01/15 10:42:08;;;;;;;3.70;1.00;;;;;;;6.80;71.27;99079.33;105541;1269;72311;-77
2023/01/15 10:45:09;;;;;;;4.40;0.70;;;;;;;6.72;71.73;99073.16;105726;1266;71208;-78
2023/01/15 10:47:38;;;;;;;3.20;0.90;;;;;;;6.59;72.19;99089.30;105729;1266;334888;-78
2023/01/15 10:50:18;;;;;;;3.40;1.00;;;;;;;6.51;72.72;99075.86;106762;1263;60022;-77
2023/01/15 10:53:01;;;;;;;3.60;0.70;;;;;;;6.46;73.28;99073.90;106285;1265;59320;-79
2023/01/15 10:55:35;;;;;;;3.60;1.20;;;;;;;6.42;73.74;99076.52;105592;1267;72419;-77
2023/01/15 10:58:15;;;;;;;3.20;0.90;;;;;;;6.40;74.37;99070.48;105861;1263;71073;-77
2023/01/15 11:00:51;;;;;;;3.20;0.80;;;;;;;6.40;74.58;99075.18;105728;1263;72861;-76
2023/01/15 11:03:34;;;;;;;3.20;0.80;;;;;;;6.41;74.63;99061.89;105382;1263;59653;-78
2023/01/15 11:06:01;;;;;;;3.50;0.80;;;;;;;6.37;74.47;99058.66;105692;1264;60087;-78
2023/01/15 11:08:31;;;;;;;4.40;1.30;;;;;;;6.40;74.25;99064.05;106632;1258;71416;-79
2023/01/15 11:20:21;;;;;;;4.30;1.30;;;;;;;6.66;73.22;99062.81;106227;1257;60022;-78
2023/01/15 11:22:48;;;;;;;2.70;1.00;;;;;;;6.72;72.44;99062.75;106109;1258;71525;-77
2023/01/15 11:25:28;;;;;;;4.00;1.20;;;;;;;6.75;72.09;99061.85;106219;1257;70933;-78
2023/01/15 11:27:57;;;;;;;4.70;1.30;;;;;;;6.81;71.17;99056.10;106625;1257;72791;-78
2023/01/15 11:30:29;;;;;;;6.70;2.00;;;;;;;6.87;71.10;99050.90;105957;1263;60011;-78
2023/01/15 11:33:02;;;;;;;4.50;1.90;;;;;;;6.91;70.88;99062.20;106004;1260;60776;-78
2023/01/15 11:35:31;;;;;;;4.40;1.20;;;;;;;7.05;69.70;99052.33;105848;1260;71988;-77
2023/01/15 11:38:04;;;;;;;3.40;1.10;;;;;;;7.25;69.19;99052.70;105845;1265;70043;-79
2023/01/15 11:40:31;;;;;;;5.80;1.20;;;;;;;7.37;68.76;99054.28;105767;1266;74058;-78
2023/01/15 11:51:45;;;;;;;5.70;1.00;;;;;;;8.31;62.86;99047.20;106191;1255;70995;-77
2023/01/15 11:54:14;;;;;;;3.30;0.90;;;;;;;8.68;61.84;99039.41;106430;1254;71219;-79
2023/01/15 11:56:43;;;;;;;2.60;0.80;;;;;;;8.96;60.46;99043.42;106324;1254;59631;-79
2023/01/15 11:59:13;;;;;;;3.40;0.70;;;;;;;9.02;57.85;99050.95;106342;1254;60019;-79
2023/01/15 12:01:49;;;;;;;5.00;1.10;;;;;;;9.15;57.61;99043.80;106180;1260;71886;-79
2023/01/15 12:04:37;;;;;;;7.00;2.40;;;;;;;9.38;57.28;99035.17;106992;1254;71339;-79
2023/01/15 12:07:15;;;;;;;3.40;0.70;;;;;;;9.60;56.14;99030.86;106386;1254;73289;-79
2023/01/15 12:11:02;;;;;;;4.00;0.90;;;;;;;9.82;55.14;99052.41;106405;1254;59863;-78
2023/01/15 12:13:33;;;;;;;3.30;0.80;;;;;;;10.16;54.43;99038.91;106468;1258;61015;-79
2023/01/15 12:16:32;;;;;;;2.60;0.70;;;;;;;10.51;53.36;99044.23;106343;1254;72743;-79
2023/01/15 12:19:27;;;;;;;3.50;0.60;;;;;;;10.55;51.62;99061.78;106053;1256;69855;-79
2023/01/15 12:22:20;;;;;;;3.50;0.60;;;;;;;10.24;52.75;99056.09;106846;1254;73155;-77
2023/01/15 12:25:05;;;;;;;2.70;0.70;;;;;;;9.66;52.79;99061.39;106157;1260;59524;-79
2023/01/15 12:27:32;;;;;;;3.50;0.90;;;;;;;9.34;54.61;99041.37;106108;1253;60414;-79
2023/01/15 12:30:20;;;;;;;3.80;0.90;;;;;;;9.14;54.74;99037.63;106319;1253;72004;-78
2023/01/15 12:32:57;;;;;;;4.30;1.10;;;;;;;9.51;54.10;99035.14;106351;1256;69748;-77
2023/01/15 12:35:30;;;;;;;3.40;0.90;;;;;;;9.74;52.81;99038.35;106297;1253;72540;-78
2023/01/15 12:38:11;;;;;;;4.30;0.80;;;;;;;9.69;52.20;99039.97;106514;1254;60140;-78
2023/01/15 12:40:51;;;;;;;3.20;0.70;;;;;;;9.92;51.42;99049.15;106522;1253;59649;-78
2023/01/15 12:46:24;;;;;;;3.20;0.70;;;;;;;9.74;52.42;99033.23;106401;1257;69964;-79
2023/01/15 12:49:22;;;;;;;7.70;1.10;;;;;;;9.68;52.34;99030.71;106406;1259;71766;-77
2023/01/15 12:51:59;;;;;;;4.50;1.20;;;;;;;9.38;52.89;99033.01;106272;1254;60104;-76
2023/01/15 12:54:38;;;;;;;4.00;0.70;;;;;;;8.97;54.20;99029.91;106389;1254;60236;-77